createdAt,value
2018-09-21T00:02:02.629Z,18.85
2018-09-21T00:04:32.017Z,18.81
2018-09-21T00:07:01.230Z,18.82
2018-09-21T00:09:30.404Z,18.71
2018-09-21T00:11:59.627Z,18.81
2018-09-21T00:14:29.037Z,18.72
2018-09-21T00:16:58.235Z,18.69
2018-09-21T00:19:27.442Z,18.62
2018-09-21T00:21:56.652Z,18.69
2018-09-21T00:24:25.843Z,18.64
2018-09-21T00:26:55.071Z,18.60
2018-09-21T00:29:24.275Z,18.56
2018-09-21T00:31:53.547Z,18.56
2018-09-21T00:34:22.753Z,18.49
2018-09-21T00:36:51.969Z,18.45
2018-09-21T00:39:47.036Z,18.39
2018-09-21T00:42:16.596Z,18.43
2018-09-21T00:44:45.786Z,18.43
2018-09-21T00:47:15.650Z,18.40
2018-09-21T00:49:44.880Z,18.38
2018-09-21T00:52:14.504Z,18.33
2018-09-21T00:54:43.739Z,18.31
2018-09-21T00:57:13.581Z,18.33
2018-09-21T00:59:42.765Z,18.34
2018-09-21T01:02:11.960Z,18.23
2018-09-21T01:04:44.127Z,18.17
2018-09-21T01:07:15.686Z,18.13
2018-09-21T01:09:45.082Z,18.06
2018-09-21T01:12:14.621Z,17.98
2018-09-21T01:14:43.817Z,17.98
2018-09-21T01:17:13.099Z,18.00
2018-09-21T01:19:42.312Z,17.97
2018-09-21T01:22:11.917Z,17.92
2018-09-21T01:24:41.096Z,17.86
2018-09-21T01:27:14.531Z,17.83
2018-09-21T01:29:44.254Z,17.79
2018-09-21T01:32:14.055Z,17.82
2018-09-21T01:34:43.239Z,17.81
2018-09-21T01:37:12.459Z,17.88
2018-09-21T01:39:41.660Z,17.88
2018-09-21T01:42:11.676Z,17.86
2018-09-21T01:44:41.105Z,17.86
2018-09-21T01:47:10.354Z,17.82
2018-09-21T01:49:39.615Z,17.75
2018-09-21T01:52:08.770Z,17.80
2018-09-21T01:54:37.987Z,17.73
2018-09-21T01:57:07.192Z,17.74
2018-09-21T01:59:36.419Z,17.77
2018-09-21T02:02:05.641Z,17.67
2018-09-21T02:04:41.920Z,17.71
2018-09-21T02:07:12.799Z,17.71
2018-09-21T02:09:42.075Z,17.69
2018-09-21T02:12:11.386Z,17.79
2018-09-21T02:14:40.560Z,17.72
2018-09-21T02:17:10.535Z,17.71
2018-09-21T02:19:39.736Z,17.64
2018-09-21T02:22:08.999Z,17.72
2018-09-21T02:24:38.176Z,17.63
2018-09-21T02:27:07.431Z,17.61
2018-09-21T02:29:36.619Z,17.63
2018-09-21T02:32:05.900Z,17.60
2018-09-21T02:34:35.069Z,17.47
2018-09-21T02:37:04.372Z,17.44
2018-09-21T02:39:33.562Z,17.34
2018-09-21T02:42:02.859Z,17.34
2018-09-21T02:44:32.028Z,17.27
2018-09-21T02:47:01.281Z,17.27
2018-09-21T02:49:30.424Z,17.32
2018-09-21T02:52:01.287Z,17.28
2018-09-21T02:54:30.456Z,17.24
2018-09-21T02:56:59.933Z,17.18
2018-09-21T02:59:29.099Z,17.23
2018-09-21T03:01:58.334Z,17.31
2018-09-21T03:04:27.510Z,17.13
2018-09-21T03:06:56.752Z,17.10
2018-09-21T03:09:26.001Z,17.20
2018-09-21T03:11:55.187Z,17.11
2018-09-21T03:14:24.378Z,16.99
2018-09-21T03:16:53.644Z,16.96
2018-09-21T03:19:22.876Z,16.85
2018-09-21T03:21:52.121Z,16.89
2018-09-21T03:24:26.953Z,16.81
2018-09-21T03:26:56.189Z,16.78
2018-09-21T03:29:25.382Z,16.81
2018-09-21T03:31:54.608Z,16.81
2018-09-21T03:34:23.793Z,16.77
2018-09-21T03:36:53.029Z,16.82
2018-09-21T03:39:22.329Z,16.87
2018-09-21T03:41:51.588Z,16.85
2018-09-21T03:44:20.907Z,16.86
2018-09-21T03:46:50.136Z,16.82
2018-09-21T03:49:19.340Z,16.83
2018-09-21T03:51:48.583Z,16.75
2018-09-21T03:54:17.840Z,16.72
2018-09-21T03:56:47.082Z,16.74
2018-09-21T03:59:16.301Z,16.87
2018-09-21T04:01:45.596Z,16.84
2018-09-21T04:04:15.523Z,16.85
2018-09-21T04:06:44.772Z,16.75
2018-09-21T04:09:16.281Z,16.79
2018-09-21T04:11:47.134Z,16.75
2018-09-21T04:14:16.815Z,16.68
2018-09-21T04:16:46.046Z,16.72
2018-09-21T04:19:15.254Z,16.70
2018-09-21T04:21:44.491Z,16.75
2018-09-21T04:24:14.325Z,16.71
2018-09-21T04:26:43.664Z,16.72
2018-09-21T04:29:13.371Z,16.57
2018-09-21T04:31:42.620Z,16.59
2018-09-21T04:34:12.258Z,16.63
2018-09-21T04:36:41.452Z,16.73
2018-09-21T04:39:12.159Z,16.72
2018-09-21T04:41:41.361Z,16.73
2018-09-21T04:44:10.855Z,16.74
2018-09-21T04:46:40.086Z,16.91
2018-09-21T04:49:09.754Z,16.95
2018-09-21T04:51:38.946Z,16.93
2018-09-21T04:54:08.759Z,16.94
2018-09-21T04:56:37.966Z,17.02
2018-09-21T04:59:07.724Z,17.03
2018-09-21T05:01:36.903Z,17.11
2018-09-21T05:04:06.612Z,17.08
2018-09-21T05:06:35.879Z,17.05
2018-09-21T05:09:07.862Z,17.05
2018-09-21T05:11:37.040Z,17.00
2018-09-21T05:14:06.452Z,16.73
2018-09-21T05:16:35.632Z,16.51
2018-09-21T05:19:04.883Z,16.51
2018-09-21T05:21:34.128Z,16.58
2018-09-21T05:24:03.338Z,16.83
2018-09-21T05:26:32.594Z,16.89
2018-09-21T05:29:01.848Z,16.71
2018-09-21T05:31:31.111Z,16.74
2018-09-21T05:34:00.373Z,16.87
2018-09-21T05:36:29.588Z,17.03
2018-09-21T05:38:58.829Z,17.09
2018-09-21T05:41:28.072Z,17.11
2018-09-21T05:43:57.266Z,17.16
2018-09-21T05:46:26.528Z,17.24
2018-09-21T05:48:55.806Z,17.46
2018-09-21T05:51:25.071Z,17.66
2018-09-21T05:53:54.328Z,17.87
2018-09-21T05:56:23.757Z,18.19
2018-09-21T05:58:53.035Z,18.50
2018-09-21T06:01:22.276Z,19.02
2018-09-21T06:03:51.509Z,19.21
2018-09-21T06:06:20.809Z,19.76
2018-09-21T06:08:50.014Z,20.70
2018-09-21T06:11:19.225Z,21.84
2018-09-21T06:13:48.930Z,22.90
2018-09-21T06:16:18.280Z,23.70
2018-09-21T06:18:47.773Z,24.11
2018-09-21T06:21:17.104Z,24.98
2018-09-21T06:23:46.684Z,25.71
2018-09-21T06:26:15.866Z,26.58
2018-09-21T06:28:45.081Z,26.91
2018-09-21T06:31:14.281Z,27.61
2018-09-21T06:33:43.427Z,28.13
2018-09-21T06:36:13.317Z,28.49
2018-09-21T06:38:42.487Z,27.50
2018-09-21T06:41:11.733Z,27.71
2018-09-21T06:43:41.001Z,26.28
2018-09-21T06:46:10.711Z,26.08
2018-09-21T06:48:39.914Z,24.98
2018-09-21T06:51:09.505Z,24.11
2018-09-21T06:53:38.704Z,23.52
2018-09-21T06:56:08.475Z,22.97
2018-09-21T06:58:37.706Z,22.58
2018-09-21T07:01:07.391Z,22.67
2018-09-21T07:03:36.554Z,22.22
2018-09-21T07:06:05.882Z,22.58
2018-09-21T07:08:35.060Z,22.32
2018-09-21T07:11:04.311Z,22.36
2018-09-21T07:13:33.556Z,22.54
2018-09-21T07:16:02.873Z,22.46
2018-09-21T07:18:32.040Z,22.68
2018-09-21T07:21:01.332Z,22.67
2018-09-21T07:23:30.741Z,22.46
2018-09-21T07:25:59.974Z,22.42
2018-09-21T07:28:29.179Z,21.88
2018-09-21T07:30:58.437Z,22.01
2018-09-21T07:33:27.647Z,21.67
2018-09-21T07:35:56.867Z,21.59
2018-09-21T07:38:26.123Z,21.40
2018-09-21T07:40:55.420Z,21.24
2018-09-21T07:58:31.033Z,22.07
2018-09-21T08:01:00.358Z,22.08
2018-09-21T08:03:29.526Z,22.21
2018-09-21T08:05:58.790Z,22.37
2018-09-21T08:08:28.058Z,22.49
2018-09-21T08:10:57.336Z,22.45
2018-09-21T08:13:26.540Z,22.81
2018-09-21T08:15:55.797Z,22.97
2018-09-21T08:18:24.984Z,23.20
2018-09-21T08:20:54.291Z,23.27
2018-09-21T08:23:23.455Z,23.36
2018-09-21T08:25:52.670Z,23.45
2018-09-21T08:28:21.879Z,23.39
2018-09-21T08:30:51.182Z,23.46
2018-09-21T08:33:20.423Z,23.72
2018-09-21T08:35:49.543Z,23.96
2018-09-21T08:38:18.739Z,23.97
2018-09-21T08:40:47.969Z,23.90
2018-09-21T08:43:17.172Z,23.93
2018-09-21T08:45:46.504Z,23.86
2018-09-21T08:48:15.681Z,23.94
2018-09-21T08:50:44.902Z,24.07
2018-09-21T08:53:14.169Z,24.11
2018-09-21T08:55:43.360Z,24.20
2018-09-21T08:58:12.596Z,23.90
2018-09-21T09:00:41.847Z,23.89
2018-09-21T09:03:11.179Z,23.77
2018-09-21T09:05:40.370Z,23.63
2018-09-21T09:08:09.950Z,23.42
2018-09-21T09:10:39.153Z,23.50
2018-09-21T09:13:08.790Z,23.60
2018-09-21T09:15:37.996Z,23.62
2018-09-21T09:18:07.664Z,23.83
2018-09-21T09:20:36.872Z,23.87
2018-09-21T09:23:06.694Z,23.80
2018-09-21T09:25:35.919Z,23.81
2018-09-21T09:28:05.273Z,23.82
2018-09-21T09:30:34.471Z,23.66
2018-09-21T09:33:03.853Z,23.57
2018-09-21T09:35:33.152Z,23.48
2018-09-21T09:38:02.384Z,23.45
2018-09-21T09:40:31.776Z,23.40
2018-09-21T09:43:00.994Z,23.39
2018-09-21T09:45:30.173Z,23.26
2018-09-21T09:47:59.370Z,23.15
2018-09-21T09:50:29.524Z,23.18
2018-09-21T09:52:58.716Z,23.06
2018-09-21T09:55:27.943Z,23.25
2018-09-21T09:57:57.183Z,23.42
2018-09-21T10:00:32.823Z,23.61
2018-09-21T10:03:03.335Z,23.82
2018-09-21T10:05:34.001Z,23.80
2018-09-21T10:08:04.472Z,23.94
2018-09-21T10:10:34.450Z,24.01
2018-09-21T10:13:03.888Z,24.22
2018-09-21T10:15:33.110Z,24.16
2018-09-21T10:18:02.399Z,24.09
2018-09-21T10:20:31.676Z,24.22
2018-09-21T10:23:00.933Z,24.42
2018-09-21T10:25:30.452Z,24.62
2018-09-21T10:27:59.855Z,24.56
2018-09-21T10:30:28.958Z,24.52
2018-09-21T10:32:58.154Z,24.50
2018-09-21T10:35:27.494Z,24.56
2018-09-21T10:37:56.972Z,24.48
2018-09-21T10:40:26.295Z,24.54
2018-09-21T10:42:55.449Z,24.50
2018-09-21T10:45:24.698Z,24.39
2018-09-21T10:47:53.872Z,24.43
2018-09-21T10:50:23.156Z,24.52
2018-09-21T10:52:52.508Z,24.43
2018-09-21T10:55:21.659Z,24.37
2018-09-21T10:57:50.870Z,24.39
2018-09-21T11:00:20.225Z,24.30
2018-09-21T11:02:49.325Z,24.11
2018-09-21T11:05:18.564Z,24.21
2018-09-21T11:07:47.795Z,24.42
2018-09-21T11:10:17.936Z,24.37
2018-09-21T11:12:47.165Z,24.35
2018-09-21T11:15:16.399Z,24.34
2018-09-21T11:17:45.576Z,24.23
2018-09-21T11:20:14.961Z,24.34
2018-09-21T11:22:44.170Z,24.31
2018-09-21T11:25:13.366Z,24.20
2018-09-21T11:27:42.535Z,24.22
2018-09-21T11:30:12.491Z,24.15
2018-09-21T11:32:41.701Z,24.07
2018-09-21T11:35:11.559Z,24.11
2018-09-21T11:37:40.837Z,24.17
2018-09-21T11:40:11.804Z,24.29
2018-09-21T11:42:41.130Z,24.37
2018-09-21T11:45:11.390Z,24.28
2018-09-21T11:47:40.659Z,24.30
2018-09-21T11:50:11.479Z,24.31
2018-09-21T11:52:40.758Z,24.15
2018-09-21T11:55:10.540Z,24.11
2018-09-21T11:57:39.805Z,24.01
2018-09-21T12:00:10.342Z,23.99
2018-09-21T12:02:39.596Z,24.09
2018-09-21T12:05:10.246Z,24.13
2018-09-21T12:07:39.495Z,24.17
2018-09-21T12:10:10.044Z,24.28
2018-09-21T12:12:39.250Z,24.36
2018-09-21T12:15:09.483Z,24.28
2018-09-21T12:17:38.725Z,24.36
2018-09-21T12:20:09.199Z,24.52
2018-09-21T12:22:38.500Z,24.53
2018-09-21T12:25:07.891Z,24.46
2018-09-21T12:27:37.099Z,24.23
2018-09-21T12:30:06.505Z,24.18
2018-09-21T12:32:35.708Z,23.92
2018-09-21T12:35:05.007Z,23.70
2018-09-21T12:37:34.219Z,23.45
2018-09-21T12:40:03.516Z,23.20
2018-09-21T12:42:32.798Z,22.98
2018-09-21T12:45:01.931Z,22.86
2018-09-21T12:47:31.088Z,22.69
2018-09-21T12:50:00.285Z,22.64
2018-09-21T12:52:29.459Z,22.47
2018-09-21T12:54:58.933Z,22.37
2018-09-21T12:57:28.259Z,22.25
2018-09-21T12:59:57.578Z,22.24
2018-09-21T13:02:26.798Z,22.14
2018-09-21T13:04:56.008Z,22.03
2018-09-21T13:07:25.198Z,21.91
2018-09-21T13:09:54.402Z,21.70
2018-09-21T13:12:23.641Z,21.47
2018-09-21T13:14:52.835Z,21.40
2018-09-21T13:17:22.202Z,20.29
2018-09-21T13:19:51.402Z,18.67
2018-09-21T13:22:20.873Z,18.16
2018-09-21T13:24:50.068Z,17.55
2018-09-21T13:27:19.243Z,17.23
2018-09-21T13:29:48.441Z,16.99
2018-09-21T13:32:17.656Z,16.74
2018-09-21T13:34:46.902Z,16.58
2018-09-21T13:37:16.098Z,16.58
2018-09-21T13:39:45.283Z,16.72
2018-09-21T13:42:14.494Z,16.80
2018-09-21T13:44:43.691Z,16.76
2018-09-21T13:47:12.853Z,16.52
2018-09-21T13:49:42.066Z,16.44
2018-09-21T13:52:11.276Z,16.54
2018-09-21T13:54:40.480Z,16.40
2018-09-21T13:57:10.287Z,16.38
2018-09-21T13:59:39.457Z,16.34
2018-09-21T14:02:08.994Z,16.44
2018-09-21T14:04:38.203Z,16.45
2018-09-21T14:07:07.890Z,16.46
2018-09-21T14:09:37.047Z,16.40
2018-09-21T14:12:06.287Z,16.43
2018-09-21T14:14:35.500Z,16.34
2018-09-21T14:17:04.714Z,16.28
2018-09-21T14:19:33.962Z,16.36
2018-09-21T14:22:03.181Z,16.38
2018-09-21T14:24:32.368Z,16.50
2018-09-21T14:27:01.681Z,16.48
2018-09-21T14:29:30.912Z,16.61
2018-09-21T14:32:00.215Z,16.49
2018-09-21T14:34:29.414Z,16.52
2018-09-21T14:36:58.641Z,16.61
2018-09-21T14:39:27.865Z,16.44
2018-09-21T14:41:57.169Z,16.64
2018-09-21T14:44:26.512Z,16.71
2018-09-21T14:46:55.788Z,16.74
2018-09-21T14:49:25.018Z,17.01
2018-09-21T14:51:54.387Z,16.88
2018-09-21T14:54:23.553Z,16.80
2018-09-21T14:56:52.799Z,16.75
2018-09-21T14:59:21.980Z,16.79
2018-09-21T15:01:51.194Z,16.95
2018-09-21T15:04:20.372Z,16.89
2018-09-21T15:06:49.656Z,16.98
2018-09-21T15:09:18.899Z,16.90
2018-09-21T15:11:48.102Z,16.85
2018-09-21T15:14:17.279Z,17.04
2018-09-21T15:16:46.492Z,17.17
2018-09-21T15:19:15.692Z,17.09
2018-09-21T15:21:44.907Z,17.00
2018-09-21T15:24:14.112Z,17.13
2018-09-21T15:26:43.316Z,17.27
2018-09-21T15:29:12.534Z,17.31
2018-09-21T15:31:41.776Z,17.57
2018-09-21T15:34:11.011Z,17.71
2018-09-21T15:36:40.261Z,17.88
2018-09-21T15:39:11.080Z,17.99
2018-09-21T15:41:40.725Z,18.03
2018-09-21T15:44:10.180Z,18.09
2018-09-21T15:46:39.365Z,18.46
2018-09-21T15:49:08.932Z,18.54
2018-09-21T15:51:38.176Z,18.18
2018-09-21T15:54:07.797Z,18.15
2018-09-21T15:56:36.980Z,17.90
2018-09-21T15:59:06.825Z,17.90
2018-09-21T16:01:36.036Z,17.71
2018-09-21T16:04:05.255Z,17.55
2018-09-21T16:06:34.989Z,17.42
2018-09-21T16:09:06.384Z,17.34
2018-09-21T16:11:36.259Z,17.32
2018-09-21T16:14:05.953Z,17.29
2018-09-21T16:16:35.749Z,17.47
2018-09-21T16:19:05.297Z,17.46
2018-09-21T16:21:34.531Z,17.44
2018-09-21T16:24:03.742Z,17.42
2018-09-21T16:26:32.948Z,17.38
2018-09-21T16:29:02.228Z,17.33
2018-09-21T16:31:31.472Z,17.38
2018-09-21T16:34:00.661Z,17.26
2018-09-21T16:36:29.897Z,17.15
2018-09-21T16:38:59.640Z,17.12
2018-09-21T16:41:30.458Z,17.02
2018-09-21T16:43:59.735Z,17.04
2018-09-21T16:46:29.005Z,17.12
2018-09-21T16:48:58.228Z,16.99
2018-09-21T16:51:27.467Z,16.87
2018-09-21T16:53:56.697Z,16.73
2018-09-21T16:56:25.966Z,16.64
2018-09-21T16:58:55.210Z,16.55
2018-09-21T17:01:24.406Z,16.49
2018-09-21T17:03:53.633Z,16.51
2018-09-21T17:06:24.218Z,16.53
2018-09-21T17:08:53.896Z,16.48
2018-09-21T17:11:23.461Z,16.43
2018-09-21T17:13:52.849Z,16.47
2018-09-21T17:16:22.150Z,16.48
2018-09-21T17:18:51.480Z,16.51
2018-09-21T17:21:20.827Z,16.56
2018-09-21T17:23:50.299Z,16.39
2018-09-21T17:26:19.561Z,16.25
2018-09-21T17:28:48.778Z,16.24
2018-09-21T17:31:18.047Z,16.19
2018-09-21T17:33:47.340Z,16.25
2018-09-21T17:36:16.603Z,16.29
2018-09-21T17:38:45.797Z,16.17
2018-09-21T17:41:15.161Z,16.17
2018-09-21T17:43:44.342Z,16.11
2018-09-21T17:46:13.611Z,16.01
2018-09-21T17:48:46.190Z,15.99
2018-09-21T17:51:15.494Z,15.97
2018-09-21T17:53:44.780Z,15.90
2018-09-21T17:56:14.061Z,15.87
2018-09-21T17:58:43.311Z,15.84
2018-09-21T18:01:12.624Z,15.78
2018-09-21T18:03:41.821Z,15.66
2018-09-21T18:06:11.514Z,15.69
2018-09-21T18:08:40.729Z,15.76
2018-09-21T18:11:09.918Z,15.79
2018-09-21T18:13:39.123Z,15.74
2018-09-21T18:16:08.485Z,15.62
2018-09-21T18:18:37.699Z,15.70
2018-09-21T18:21:07.211Z,15.74
2018-09-21T18:23:36.419Z,15.63
2018-09-21T18:26:06.443Z,15.57
2018-09-21T18:28:35.610Z,15.55
2018-09-21T18:31:05.327Z,15.56
2018-09-21T18:33:34.572Z,15.66
2018-09-21T18:36:03.968Z,15.67
2018-09-21T18:38:33.236Z,15.61
2018-09-21T18:41:02.480Z,15.69
2018-09-21T18:43:31.671Z,15.62
2018-09-21T18:46:01.026Z,15.62
2018-09-21T18:48:30.401Z,15.67
2018-09-21T18:50:59.645Z,15.65
2018-09-21T18:53:28.921Z,15.61
2018-09-21T18:55:58.185Z,15.57
2018-09-21T18:58:27.394Z,15.50
2018-09-21T19:00:56.655Z,15.55
2018-09-21T19:03:25.857Z,15.36
2018-09-21T19:05:55.219Z,15.34
2018-09-21T19:08:24.435Z,15.23
2018-09-21T19:10:53.693Z,15.18
2018-09-21T19:13:22.923Z,15.03
2018-09-21T19:15:52.151Z,15.15
2018-09-21T19:18:21.329Z,15.10
2018-09-21T19:20:50.573Z,15.08
2018-09-21T19:23:19.798Z,15.04
2018-09-21T19:25:49.130Z,14.99
2018-09-21T19:28:18.349Z,14.95
2018-09-21T19:30:47.616Z,14.96
2018-09-21T19:33:17.292Z,14.87
2018-09-21T19:35:46.546Z,14.79
2018-09-21T19:38:16.258Z,14.69
2018-09-21T19:40:45.845Z,14.64
2018-09-21T19:43:15.741Z,14.65
2018-09-21T19:45:45.044Z,14.62
2018-09-21T19:48:14.837Z,14.76
2018-09-21T19:50:44.110Z,14.69
2018-09-21T19:53:13.956Z,14.76
2018-09-21T19:55:43.117Z,14.74
2018-09-21T19:58:12.948Z,14.66
2018-09-21T20:00:42.124Z,14.67
2018-09-21T20:03:11.724Z,14.81
2018-09-21T20:05:40.967Z,14.72
2018-09-21T20:08:10.324Z,14.68
2018-09-21T20:10:39.575Z,14.80
2018-09-21T20:13:08.820Z,14.75
2018-09-21T20:15:38.131Z,14.80
2018-09-21T20:18:07.358Z,14.76
2018-09-21T20:20:36.587Z,14.80
2018-09-21T20:23:05.891Z,14.70
2018-09-21T20:25:35.083Z,14.48
2018-09-21T20:28:04.310Z,14.32
2018-09-21T20:30:38.769Z,14.37
2018-09-21T20:33:43.511Z,14.27
2018-09-21T20:36:13.388Z,14.14
2018-09-21T20:38:42.664Z,14.07
2018-09-21T20:41:12.164Z,13.94
2018-09-21T20:43:41.350Z,13.85
2018-09-21T20:46:10.576Z,13.81
2018-09-21T20:48:39.803Z,13.74
2018-09-21T20:51:09.080Z,13.81
2018-09-21T20:53:38.363Z,13.76
2018-09-21T20:56:07.765Z,13.66
2018-09-21T20:58:37.261Z,13.63
2018-09-21T21:01:06.452Z,13.64
2018-09-21T21:03:35.720Z,13.69
2018-09-21T21:06:04.947Z,13.57
2018-09-21T21:08:34.193Z,13.68
2018-09-21T21:11:03.379Z,13.80
2018-09-21T21:13:32.575Z,13.85
2018-09-21T21:16:01.875Z,13.96
2018-09-21T21:18:31.090Z,14.08
2018-09-21T21:21:00.336Z,14.25
2018-09-21T21:23:29.555Z,14.23
2018-09-21T21:25:58.811Z,14.26
2018-09-21T21:28:28.063Z,14.27
2018-09-21T21:30:57.239Z,14.19
2018-09-21T21:33:26.460Z,14.21
2018-09-21T21:35:55.731Z,14.14
2018-09-21T21:38:24.977Z,14.22
2018-09-21T21:40:54.225Z,14.19
2018-09-21T21:43:23.454Z,14.12
2018-09-21T21:45:52.791Z,14.20
2018-09-21T21:48:22.017Z,14.14
2018-09-21T21:50:52.344Z,14.15
2018-09-21T21:53:21.790Z,14.11
2018-09-21T21:55:51.203Z,14.07
2018-09-21T21:58:20.472Z,13.92
2018-09-21T22:00:54.984Z,13.90
2018-09-21T22:03:24.207Z,13.97
2018-09-21T22:05:53.420Z,13.95
2018-09-21T22:08:22.668Z,13.86
2018-09-21T22:10:51.852Z,13.82
2018-09-21T22:13:26.302Z,13.81
2018-09-21T22:15:55.508Z,13.88
2018-09-21T22:18:24.717Z,13.72
2018-09-21T22:20:53.967Z,13.71
2018-09-21T22:23:23.166Z,13.69
2018-09-21T22:25:52.429Z,13.69
2018-09-21T22:28:21.576Z,13.61
2018-09-21T22:30:50.886Z,13.69
2018-09-21T22:33:20.176Z,13.55
2018-09-21T22:35:49.476Z,13.50
2018-09-21T22:38:18.653Z,13.39
2018-09-21T22:40:47.934Z,13.13
2018-09-21T22:43:17.370Z,12.98
2018-09-21T22:45:46.620Z,12.83
2018-09-21T22:48:16.102Z,12.69
2018-09-21T22:50:45.323Z,12.65
2018-09-21T22:53:15.279Z,12.64
2018-09-21T22:55:44.530Z,12.77
2018-09-21T22:58:14.002Z,12.72
2018-09-21T23:00:43.525Z,12.69
2018-09-21T23:03:13.546Z,12.73
2018-09-21T23:05:42.775Z,12.75
2018-09-21T23:08:12.317Z,12.81
2018-09-21T23:10:41.564Z,12.78
2018-09-21T23:13:10.997Z,12.87
2018-09-21T23:15:40.245Z,12.79
2018-09-21T23:18:09.456Z,12.84
2018-09-21T23:20:38.726Z,12.74
2018-09-21T23:23:07.968Z,12.84
2018-09-21T23:25:37.232Z,12.60
2018-09-21T23:28:06.436Z,12.59
2018-09-21T23:30:35.723Z,12.53
2018-09-21T23:33:04.950Z,12.54
2018-09-21T23:35:34.192Z,12.51
2018-09-21T23:38:03.450Z,12.37
2018-09-21T23:40:32.754Z,12.30
2018-09-21T23:43:01.940Z,12.22
2018-09-21T23:45:31.180Z,12.23
2018-09-21T23:48:00.451Z,12.27
2018-09-21T23:50:29.675Z,12.32
2018-09-21T23:52:58.864Z,12.25
2018-09-21T23:55:28.096Z,12.21
2018-09-21T23:57:57.294Z,12.27
